sensor_id;sensor_type;location;lat;lon;timestamp;P1;durP1;ratioP1;P2;durP2;ratioP2
70707;SDS011;58277;47.316;18.908;2022-12-05T00:01:44;10.03;;;4.63;;
70707;SDS011;58277;47.316;18.908;2022-12-05T00:04:08;8.82;;;4.32;;
70707;SDS011;58277;47.316;18.908;2022-12-05T00:06:33;9.18;;;4.35;;
70707;SDS011;58277;47.316;18.908;2022-12-05T00:08:57;9.80;;;4.70;;
70707;SDS011;58277;47.316;18.908;2022-12-05T00:11:24;10.18;;;4.30;;
70707;SDS011;58277;47.316;18.908;2022-12-05T00:13:49;10.83;;;4.80;;
70707;SDS011;58277;47.316;18.908;2022-12-05T00:16:16;9.98;;;4.00;;
70707;SDS011;58277;47.316;18.908;2022-12-05T00:18:40;11.00;;;4.18;;
70707;SDS011;58277;47.316;18.908;2022-12-05T00:21:02;8.40;;;3.90;;
70707;SDS011;58277;47.316;18.908;2022-12-05T00:23:25;11.75;;;4.63;;
70707;SDS011;58277;47.316;18.908;2022-12-05T00:25:48;10.87;;;4.50;;
70707;SDS011;58277;47.316;18.908;2022-12-05T00:28:11;10.93;;;4.00;;
70707;SDS011;58277;47.316;18.908;2022-12-05T00:30:33;9.40;;;4.13;;
70707;SDS011;58277;47.316;18.908;2022-12-05T00:32:56;9.18;;;4.38;;
70707;SDS011;58277;47.316;18.908;2022-12-05T00:35:19;9.85;;;4.45;;
70707;SDS011;58277;47.316;18.908;2022-12-05T00:37:42;8.70;;;4.10;;
70707;SDS011;58277;47.316;18.908;2022-12-05T00:40:04;9.88;;;4.40;;
70707;SDS011;58277;47.316;18.908;2022-12-05T00:42:27;9.18;;;4.20;;
70707;SDS011;58277;47.316;18.908;2022-12-05T00:44:50;9.52;;;4.40;;
70707;SDS011;58277;47.316;18.908;2022-12-05T00:47:13;9.00;;;3.92;;
70707;SDS011;58277;47.316;18.908;2022-12-05T00:49:37;10.20;;;4.40;;
70707;SDS011;58277;47.316;18.908;2022-12-05T00:51:59;9.38;;;4.25;;
70707;SDS011;58277;47.316;18.908;2022-12-05T00:54:22;9.25;;;4.07;;
70707;SDS011;58277;47.316;18.908;2022-12-05T00:56:45;9.02;;;4.13;;
70707;SDS011;58277;47.316;18.908;2022-12-05T00:59:08;9.48;;;3.90;;
70707;SDS011;58277;47.316;18.908;2022-12-05T01:01:37;8.47;;;4.10;;
70707;SDS011;58277;47.316;18.908;2022-12-05T01:04:06;11.25;;;4.95;;
70707;SDS011;58277;47.316;18.908;2022-12-05T01:06:32;9.57;;;4.03;;
70707;SDS011;58277;47.316;18.908;2022-12-05T01:08:56;9.10;;;4.50;;
70707;SDS011;58277;47.316;18.908;2022-12-05T01:11:19;10.93;;;4.40;;
70707;SDS011;58277;47.316;18.908;2022-12-05T01:13:44;11.17;;;4.50;;
70707;SDS011;58277;47.316;18.908;2022-12-05T01:16:18;10.85;;;4.63;;
70707;SDS011;58277;47.316;18.908;2022-12-05T01:18:41;11.00;;;4.85;;
70707;SDS011;58277;47.316;18.908;2022-12-05T01:21:04;9.98;;;4.20;;
70707;SDS011;58277;47.316;18.908;2022-12-05T01:23:27;9.50;;;4.53;;
70707;SDS011;58277;47.316;18.908;2022-12-05T01:25:50;10.37;;;4.40;;
70707;SDS011;58277;47.316;18.908;2022-12-05T01:28:14;11.27;;;4.30;;
70707;SDS011;58277;47.316;18.908;2022-12-05T01:30:41;11.25;;;4.55;;
70707;SDS011;58277;47.316;18.908;2022-12-05T01:33:07;9.85;;;4.30;;
70707;SDS011;58277;47.316;18.908;2022-12-05T01:35:33;12.27;;;4.30;;
70707;SDS011;58277;47.316;18.908;2022-12-05T01:37:58;11.10;;;4.90;;
70707;SDS011;58277;47.316;18.908;2022-12-05T01:40:21;11.73;;;4.40;;
70707;SDS011;58277;47.316;18.908;2022-12-05T01:42:43;11.00;;;4.40;;
70707;SDS011;58277;47.316;18.908;2022-12-05T01:45:15;10.48;;;4.55;;
70707;SDS011;58277;47.316;18.908;2022-12-05T01:47:40;10.68;;;4.55;;
70707;SDS011;58277;47.316;18.908;2022-12-05T01:50:03;10.20;;;4.50;;
70707;SDS011;58277;47.316;18.908;2022-12-05T01:52:27;11.20;;;4.70;;
70707;SDS011;58277;47.316;18.908;2022-12-05T01:54:53;10.13;;;4.20;;
70707;SDS011;58277;47.316;18.908;2022-12-05T01:57:17;11.80;;;4.70;;
70707;SDS011;58277;47.316;18.908;2022-12-05T01:59:44;11.60;;;4.78;;
70707;SDS011;58277;47.316;18.908;2022-12-05T02:02:12;10.67;;;4.40;;
70707;SDS011;58277;47.316;18.908;2022-12-05T02:04:40;11.45;;;4.68;;
70707;SDS011;58277;47.316;18.908;2022-12-05T02:07:11;10.93;;;4.63;;
70707;SDS011;58277;47.316;18.908;2022-12-05T02:09:34;11.43;;;4.50;;
70707;SDS011;58277;47.316;18.908;2022-12-05T02:11:58;10.95;;;4.43;;
70707;SDS011;58277;47.316;18.908;2022-12-05T02:17:36;11.20;;;4.70;;
70707;SDS011;58277;47.316;18.908;2022-12-05T02:22:57;12.63;;;4.82;;
70707;SDS011;58277;47.316;18.908;2022-12-05T02:30:56;11.25;;;5.28;;
70707;SDS011;58277;47.316;18.908;2022-12-05T02:38:37;12.57;;;5.43;;
70707;SDS011;58277;47.316;18.908;2022-12-05T02:43:53;13.35;;;5.07;;
70707;SDS011;58277;47.316;18.908;2022-12-05T02:46:26;12.00;;;5.22;;
70707;SDS011;58277;47.316;18.908;2022-12-05T02:48:53;12.68;;;4.85;;
70707;SDS011;58277;47.316;18.908;2022-12-05T02:51:18;14.50;;;5.10;;
70707;SDS011;58277;47.316;18.908;2022-12-05T02:53:44;8.63;;;4.10;;
70707;SDS011;58277;47.316;18.908;2022-12-05T02:56:08;11.70;;;5.20;;
70707;SDS011;58277;47.316;18.908;2022-12-05T02:58:33;11.05;;;5.07;;
70707;SDS011;58277;47.316;18.908;2022-12-05T03:01:00;12.27;;;4.90;;
70707;SDS011;58277;47.316;18.908;2022-12-05T03:03:26;13.23;;;5.38;;
70707;SDS011;58277;47.316;18.908;2022-12-05T03:06:12;11.47;;;4.77;;
70707;SDS011;58277;47.316;18.908;2022-12-05T03:08:38;10.40;;;4.22;;
70707;SDS011;58277;47.316;18.908;2022-12-05T03:11:12;11.70;;;5.35;;
70707;SDS011;58277;47.316;18.908;2022-12-05T03:13:37;11.77;;;5.20;;
70707;SDS011;58277;47.316;18.908;2022-12-05T03:16:07;11.85;;;4.93;;
70707;SDS011;58277;47.316;18.908;2022-12-05T03:18:37;12.60;;;5.40;;
70707;SDS011;58277;47.316;18.908;2022-12-05T03:21:04;12.68;;;5.47;;
70707;SDS011;58277;47.316;18.908;2022-12-05T03:24:26;10.88;;;4.90;;
70707;SDS011;58277;47.316;18.908;2022-12-05T03:26:55;10.68;;;4.82;;
70707;SDS011;58277;47.316;18.908;2022-12-05T03:29:21;12.25;;;5.10;;
70707;SDS011;58277;47.316;18.908;2022-12-05T03:31:51;12.60;;;5.63;;
70707;SDS011;58277;47.316;18.908;2022-12-05T03:34:17;11.75;;;5.30;;
70707;SDS011;58277;47.316;18.908;2022-12-05T03:36:48;13.63;;;5.03;;
70707;SDS011;58277;47.316;18.908;2022-12-05T03:39:17;14.05;;;5.70;;
70707;SDS011;58277;47.316;18.908;2022-12-05T03:41:49;13.05;;;5.45;;
70707;SDS011;58277;47.316;18.908;2022-12-05T03:44:30;12.90;;;5.33;;
70707;SDS011;58277;47.316;18.908;2022-12-05T03:46:59;13.20;;;5.30;;
70707;SDS011;58277;47.316;18.908;2022-12-05T03:49:44;12.02;;;5.57;;
70707;SDS011;58277;47.316;18.908;2022-12-05T03:52:19;14.50;;;5.55;;
70707;SDS011;58277;47.316;18.908;2022-12-05T03:54:53;13.52;;;5.43;;
70707;SDS011;58277;47.316;18.908;2022-12-05T03:57:30;12.90;;;5.67;;
70707;SDS011;58277;47.316;18.908;2022-12-05T03:59:58;12.05;;;5.57;;
70707;SDS011;58277;47.316;18.908;2022-12-05T04:02:31;13.18;;;5.22;;
70707;SDS011;58277;47.316;18.908;2022-12-05T04:05:08;10.70;;;4.90;;
70707;SDS011;58277;47.316;18.908;2022-12-05T04:07:34;13.32;;;5.45;;
70707;SDS011;58277;47.316;18.908;2022-12-05T04:10:03;12.33;;;5.40;;
70707;SDS011;58277;47.316;18.908;2022-12-05T04:12:31;12.25;;;5.57;;
70707;SDS011;58277;47.316;18.908;2022-12-05T04:14:56;12.35;;;5.25;;
70707;SDS011;58277;47.316;18.908;2022-12-05T04:17:30;11.57;;;5.45;;
70707;SDS011;58277;47.316;18.908;2022-12-05T04:19:58;13.05;;;5.50;;
70707;SDS011;58277;47.316;18.908;2022-12-05T04:22:44;11.20;;;4.93;;
70707;SDS011;58277;47.316;18.908;2022-12-05T04:25:08;12.32;;;5.10;;
70707;SDS011;58277;47.316;18.908;2022-12-05T04:33:51;11.13;;;4.90;;
70707;SDS011;58277;47.316;18.908;2022-12-05T04:36:22;11.57;;;4.87;;
70707;SDS011;58277;47.316;18.908;2022-12-05T04:39:15;11.73;;;4.90;;
70707;SDS011;58277;47.316;18.908;2022-12-05T04:42:01;12.25;;;5.13;;
70707;SDS011;58277;47.316;18.908;2022-12-05T04:44:29;12.93;;;5.15;;
70707;SDS011;58277;47.316;18.908;2022-12-05T04:46:58;11.32;;;5.15;;
70707;SDS011;58277;47.316;18.908;2022-12-05T04:49:24;11.57;;;5.20;;
70707;SDS011;58277;47.316;18.908;2022-12-05T04:51:49;10.50;;;4.82;;
70707;SDS011;58277;47.316;18.908;2022-12-05T04:54:26;10.77;;;4.75;;
70707;SDS011;58277;47.316;18.908;2022-12-05T04:56:58;10.15;;;4.53;;
70707;SDS011;58277;47.316;18.908;2022-12-05T04:59:28;11.40;;;4.85;;
70707;SDS011;58277;47.316;18.908;2022-12-05T05:01:52;11.03;;;4.73;;
70707;SDS011;58277;47.316;18.908;2022-12-05T05:04:20;13.95;;;5.50;;
70707;SDS011;58277;47.316;18.908;2022-12-05T05:06:48;10.93;;;4.65;;
70707;SDS011;58277;47.316;18.908;2022-12-05T05:09:11;10.95;;;4.65;;
70707;SDS011;58277;47.316;18.908;2022-12-05T05:11:34;10.50;;;4.47;;
70707;SDS011;58277;47.316;18.908;2022-12-05T05:13:57;9.77;;;4.40;;
70707;SDS011;58277;47.316;18.908;2022-12-05T05:16:24;14.05;;;5.32;;
70707;SDS011;58277;47.316;18.908;2022-12-05T05:18:55;9.73;;;4.60;;
70707;SDS011;58277;47.316;18.908;2022-12-05T05:21:19;11.07;;;4.90;;
70707;SDS011;58277;47.316;18.908;2022-12-05T05:23:45;10.20;;;4.72;;
70707;SDS011;58277;47.316;18.908;2022-12-05T05:26:07;10.23;;;4.87;;
70707;SDS011;58277;47.316;18.908;2022-12-05T05:28:30;13.40;;;4.85;;
70707;SDS011;58277;47.316;18.908;2022-12-05T05:30:52;10.55;;;4.68;;
70707;SDS011;58277;47.316;18.908;2022-12-05T05:33:15;9.80;;;4.63;;
70707;SDS011;58277;47.316;18.908;2022-12-05T05:35:38;10.20;;;4.25;;
70707;SDS011;58277;47.316;18.908;2022-12-05T05:38:01;9.87;;;4.50;;
70707;SDS011;58277;47.316;18.908;2022-12-05T05:40:23;10.40;;;4.60;;
70707;SDS011;58277;47.316;18.908;2022-12-05T05:42:47;10.65;;;4.80;;
70707;SDS011;58277;47.316;18.908;2022-12-05T05:45:10;11.07;;;5.25;;
70707;SDS011;58277;47.316;18.908;2022-12-05T05:47:34;14.23;;;5.32;;
70707;SDS011;58277;47.316;18.908;2022-12-05T05:49:58;12.27;;;5.60;;
70707;SDS011;58277;47.316;18.908;2022-12-05T05:52:21;14.20;;;5.63;;
70707;SDS011;58277;47.316;18.908;2022-12-05T05:54:44;12.18;;;4.53;;
70707;SDS011;58277;47.316;18.908;2022-12-05T05:57:06;11.23;;;5.35;;
70707;SDS011;58277;47.316;18.908;2022-12-05T05:59:29;12.10;;;5.15;;
70707;SDS011;58277;47.316;18.908;2022-12-05T06:01:52;14.10;;;6.20;;
70707;SDS011;58277;47.316;18.908;2022-12-05T06:04:15;14.95;;;6.90;;
70707;SDS011;58277;47.316;18.908;2022-12-05T06:06:37;14.57;;;5.70;;
70707;SDS011;58277;47.316;18.908;2022-12-05T06:09:01;15.48;;;5.95;;
70707;SDS011;58277;47.316;18.908;2022-12-05T06:11:27;13.65;;;5.95;;
70707;SDS011;58277;47.316;18.908;2022-12-05T06:13:50;12.67;;;5.43;;
70707;SDS011;58277;47.316;18.908;2022-12-05T06:16:13;12.80;;;5.63;;
70707;SDS011;58277;47.316;18.908;2022-12-05T06:18:37;14.15;;;5.82;;
70707;SDS011;58277;47.316;18.908;2022-12-05T06:20:59;11.40;;;5.30;;
70707;SDS011;58277;47.316;18.908;2022-12-05T06:23:23;10.52;;;4.95;;
70707;SDS011;58277;47.316;18.908;2022-12-05T06:25:47;10.13;;;5.00;;
70707;SDS011;58277;47.316;18.908;2022-12-05T06:28:10;11.85;;;5.13;;
70707;SDS011;58277;47.316;18.908;2022-12-05T06:30:33;11.77;;;4.65;;
70707;SDS011;58277;47.316;18.908;2022-12-05T06:32:56;12.40;;;5.35;;
70707;SDS011;58277;47.316;18.908;2022-12-05T06:35:18;11.77;;;4.90;;
70707;SDS011;58277;47.316;18.908;2022-12-05T06:37:41;9.00;;;4.47;;
70707;SDS011;58277;47.316;18.908;2022-12-05T06:40:04;10.40;;;4.65;;
70707;SDS011;58277;47.316;18.908;2022-12-05T06:42:29;12.20;;;5.00;;
70707;SDS011;58277;47.316;18.908;2022-12-05T06:44:52;10.27;;;4.90;;
70707;SDS011;58277;47.316;18.908;2022-12-05T06:47:18;11.80;;;4.75;;
70707;SDS011;58277;47.316;18.908;2022-12-05T06:49:41;10.27;;;4.30;;
70707;SDS011;58277;47.316;18.908;2022-12-05T06:52:11;11.38;;;4.63;;
70707;SDS011;58277;47.316;18.908;2022-12-05T06:54:34;11.85;;;5.40;;
70707;SDS011;58277;47.316;18.908;2022-12-05T06:56:57;11.48;;;5.60;;
70707;SDS011;58277;47.316;18.908;2022-12-05T06:59:22;11.52;;;4.90;;
70707;SDS011;58277;47.316;18.908;2022-12-05T07:01:45;10.47;;;4.80;;
70707;SDS011;58277;47.316;18.908;2022-12-05T07:06:39;11.60;;;5.22;;
70707;SDS011;58277;47.316;18.908;2022-12-05T07:09:10;10.50;;;4.75;;
70707;SDS011;58277;47.316;18.908;2022-12-05T07:11:33;12.05;;;4.88;;
70707;SDS011;58277;47.316;18.908;2022-12-05T07:13:56;14.47;;;6.70;;
70707;SDS011;58277;47.316;18.908;2022-12-05T07:16:18;10.90;;;4.95;;
70707;SDS011;58277;47.316;18.908;2022-12-05T07:18:41;12.15;;;5.10;;
70707;SDS011;58277;47.316;18.908;2022-12-05T07:21:05;11.43;;;5.60;;
70707;SDS011;58277;47.316;18.908;2022-12-05T07:23:34;10.68;;;5.13;;
70707;SDS011;58277;47.316;18.908;2022-12-05T07:25:57;9.20;;;4.40;;
70707;SDS011;58277;47.316;18.908;2022-12-05T07:28:22;10.50;;;4.82;;
70707;SDS011;58277;47.316;18.908;2022-12-05T07:30:45;9.63;;;4.75;;
70707;SDS011;58277;47.316;18.908;2022-12-05T07:33:08;10.38;;;4.63;;
70707;SDS011;58277;47.316;18.908;2022-12-05T07:35:31;9.88;;;4.65;;
70707;SDS011;58277;47.316;18.908;2022-12-05T07:37:56;8.07;;;4.20;;
70707;SDS011;58277;47.316;18.908;2022-12-05T07:40:20;9.30;;;4.47;;
70707;SDS011;58277;47.316;18.908;2022-12-05T07:42:43;10.30;;;4.35;;
70707;SDS011;58277;47.316;18.908;2022-12-05T07:45:09;10.13;;;4.63;;
70707;SDS011;58277;47.316;18.908;2022-12-05T07:47:32;10.48;;;4.20;;
70707;SDS011;58277;47.316;18.908;2022-12-05T07:49:56;8.80;;;4.30;;
70707;SDS011;58277;47.316;18.908;2022-12-05T07:52:19;10.63;;;4.70;;
70707;SDS011;58277;47.316;18.908;2022-12-05T07:54:42;12.77;;;5.07;;
70707;SDS011;58277;47.316;18.908;2022-12-05T07:57:04;11.75;;;4.95;;
70707;SDS011;58277;47.316;18.908;2022-12-05T07:59:27;12.63;;;4.70;;
70707;SDS011;58277;47.316;18.908;2022-12-05T08:01:50;10.40;;;4.20;;
70707;SDS011;58277;47.316;18.908;2022-12-05T08:04:13;11.35;;;4.47;;
70707;SDS011;58277;47.316;18.908;2022-12-05T08:06:38;9.48;;;4.13;;
70707;SDS011;58277;47.316;18.908;2022-12-05T08:09:01;10.63;;;4.50;;
70707;SDS011;58277;47.316;18.908;2022-12-05T08:11:24;11.02;;;4.68;;
70707;SDS011;58277;47.316;18.908;2022-12-05T08:13:49;9.57;;;4.10;;
70707;SDS011;58277;47.316;18.908;2022-12-05T08:16:13;9.07;;;3.97;;
70707;SDS011;58277;47.316;18.908;2022-12-05T08:18:41;11.55;;;4.82;;
70707;SDS011;58277;47.316;18.908;2022-12-05T08:21:14;10.32;;;4.57;;
70707;SDS011;58277;47.316;18.908;2022-12-05T08:23:40;10.18;;;4.45;;
70707;SDS011;58277;47.316;18.908;2022-12-05T08:28:27;12.93;;;4.47;;
70707;SDS011;58277;47.316;18.908;2022-12-05T08:30:50;9.70;;;4.50;;
70707;SDS011;58277;47.316;18.908;2022-12-05T08:33:13;11.13;;;4.07;;
70707;SDS011;58277;47.316;18.908;2022-12-05T08:35:36;10.73;;;4.60;;
70707;SDS011;58277;47.316;18.908;2022-12-05T08:37:59;10.13;;;4.13;;
70707;SDS011;58277;47.316;18.908;2022-12-05T08:40:22;8.75;;;4.15;;
70707;SDS011;58277;47.316;18.908;2022-12-05T08:42:45;10.20;;;4.30;;
70707;SDS011;58277;47.316;18.908;2022-12-05T08:45:07;15.18;;;5.97;;
70707;SDS011;58277;47.316;18.908;2022-12-05T08:47:30;10.68;;;4.70;;
70707;SDS011;58277;47.316;18.908;2022-12-05T08:49:53;8.93;;;4.77;;
70707;SDS011;58277;47.316;18.908;2022-12-05T08:52:17;9.25;;;4.50;;
70707;SDS011;58277;47.316;18.908;2022-12-05T08:54:45;9.13;;;4.25;;
70707;SDS011;58277;47.316;18.908;2022-12-05T08:57:08;10.68;;;4.45;;
70707;SDS011;58277;47.316;18.908;2022-12-05T08:59:35;9.68;;;4.28;;
70707;SDS011;58277;47.316;18.908;2022-12-05T09:01:58;9.67;;;4.33;;
70707;SDS011;58277;47.316;18.908;2022-12-05T09:04:21;9.73;;;4.40;;
70707;SDS011;58277;47.316;18.908;2022-12-05T09:06:44;9.35;;;4.07;;
70707;SDS011;58277;47.316;18.908;2022-12-05T09:09:07;10.52;;;4.38;;
70707;SDS011;58277;47.316;18.908;2022-12-05T09:11:34;9.15;;;4.47;;
70707;SDS011;58277;47.316;18.908;2022-12-05T09:14:00;10.43;;;4.70;;
70707;SDS011;58277;47.316;18.908;2022-12-05T09:16:24;13.40;;;4.82;;
70707;SDS011;58277;47.316;18.908;2022-12-05T09:19:00;11.60;;;5.50;;
70707;SDS011;58277;47.316;18.908;2022-12-05T09:21:24;9.07;;;4.18;;
70707;SDS011;58277;47.316;18.908;2022-12-05T09:23:51;8.15;;;4.22;;
70707;SDS011;58277;47.316;18.908;2022-12-05T09:26:16;8.37;;;4.13;;
70707;SDS011;58277;47.316;18.908;2022-12-05T09:28:41;8.02;;;4.70;;
70707;SDS011;58277;47.316;18.908;2022-12-05T09:31:09;11.13;;;4.65;;
70707;SDS011;58277;47.316;18.908;2022-12-05T09:33:40;9.40;;;4.50;;
70707;SDS011;58277;47.316;18.908;2022-12-05T09:36:04;9.15;;;4.95;;
70707;SDS011;58277;47.316;18.908;2022-12-05T09:38:29;10.15;;;4.47;;
70707;SDS011;58277;47.316;18.908;2022-12-05T09:43:48;8.65;;;4.90;;
70707;SDS011;58277;47.316;18.908;2022-12-05T09:49:05;10.43;;;5.00;;
70707;SDS011;58277;47.316;18.908;2022-12-05T09:51:31;10.33;;;5.20;;
70707;SDS011;58277;47.316;18.908;2022-12-05T09:53:54;10.48;;;5.47;;
70707;SDS011;58277;47.316;18.908;2022-12-05T09:56:24;10.32;;;5.40;;
70707;SDS011;58277;47.316;18.908;2022-12-05T09:58:53;10.00;;;5.60;;
70707;SDS011;58277;47.316;18.908;2022-12-05T10:17:36;15.55;;;7.60;;
70707;SDS011;58277;47.316;18.908;2022-12-05T10:20:25;16.27;;;7.53;;
70707;SDS011;58277;47.316;18.908;2022-12-05T10:23:06;15.75;;;8.07;;
70707;SDS011;58277;47.316;18.908;2022-12-05T10:25:55;13.90;;;7.25;;
70707;SDS011;58277;47.316;18.908;2022-12-05T10:28:41;17.98;;;8.63;;
70707;SDS011;58277;47.316;18.908;2022-12-05T10:31:09;14.37;;;7.53;;
70707;SDS011;58277;47.316;18.908;2022-12-05T10:33:37;17.02;;;8.05;;
70707;SDS011;58277;47.316;18.908;2022-12-05T10:36:08;15.07;;;7.78;;
70707;SDS011;58277;47.316;18.908;2022-12-05T10:38:35;13.30;;;7.32;;
70707;SDS011;58277;47.316;18.908;2022-12-05T10:40:58;16.42;;;8.35;;
70707;SDS011;58277;47.316;18.908;2022-12-05T10:43:27;14.87;;;8.07;;
70707;SDS011;58277;47.316;18.908;2022-12-05T10:45:51;17.27;;;8.80;;
70707;SDS011;58277;47.316;18.908;2022-12-05T10:48:15;16.00;;;8.45;;
70707;SDS011;58277;47.316;18.908;2022-12-05T10:50:39;14.65;;;8.23;;
70707;SDS011;58277;47.316;18.908;2022-12-05T10:53:07;15.60;;;8.65;;
70707;SDS011;58277;47.316;18.908;2022-12-05T10:55:38;15.30;;;8.17;;
70707;SDS011;58277;47.316;18.908;2022-12-05T10:58:25;17.13;;;8.55;;
70707;SDS011;58277;47.316;18.908;2022-12-05T11:00:51;14.90;;;8.30;;
70707;SDS011;58277;47.316;18.908;2022-12-05T11:05:50;14.90;;;8.07;;
70707;SDS011;58277;47.316;18.908;2022-12-05T11:08:31;13.87;;;7.43;;
70707;SDS011;58277;47.316;18.908;2022-12-05T11:11:20;14.43;;;7.43;;
70707;SDS011;58277;47.316;18.908;2022-12-05T11:13:58;11.57;;;6.78;;
70707;SDS011;58277;47.316;18.908;2022-12-05T11:16:23;13.10;;;7.32;;
70707;SDS011;58277;47.316;18.908;2022-12-05T11:18:50;14.02;;;6.90;;
70707;SDS011;58277;47.316;18.908;2022-12-05T11:21:13;13.63;;;7.90;;
70707;SDS011;58277;47.316;18.908;2022-12-05T11:23:39;17.67;;;8.88;;
70707;SDS011;58277;47.316;18.908;2022-12-05T11:26:02;16.83;;;8.90;;
70707;SDS011;58277;47.316;18.908;2022-12-05T11:28:29;17.30;;;8.85;;
70707;SDS011;58277;47.316;18.908;2022-12-05T11:30:58;15.48;;;9.02;;
70707;SDS011;58277;47.316;18.908;2022-12-05T11:33:23;17.40;;;9.07;;
70707;SDS011;58277;47.316;18.908;2022-12-05T11:35:52;15.77;;;8.35;;
70707;SDS011;58277;47.316;18.908;2022-12-05T11:38:20;16.02;;;8.43;;
70707;SDS011;58277;47.316;18.908;2022-12-05T11:46:13;16.53;;;9.13;;
70707;SDS011;58277;47.316;18.908;2022-12-05T11:51:39;19.00;;;9.23;;
70707;SDS011;58277;47.316;18.908;2022-12-05T12:00:18;17.17;;;8.90;;
70707;SDS011;58277;47.316;18.908;2022-12-05T12:03:24;18.45;;;9.45;;
70707;SDS011;58277;47.316;18.908;2022-12-05T12:08:54;17.42;;;8.68;;
70707;SDS011;58277;47.316;18.908;2022-12-05T12:11:38;16.20;;;8.27;;
70707;SDS011;58277;47.316;18.908;2022-12-05T12:14:24;15.20;;;7.83;;
70707;SDS011;58277;47.316;18.908;2022-12-05T12:23:20;16.35;;;8.63;;
70707;SDS011;58277;47.316;18.908;2022-12-05T12:36:11;24.05;;;11.77;;
70707;SDS011;58277;47.316;18.908;2022-12-05T12:44:27;24.67;;;11.60;;
70707;SDS011;58277;47.316;18.908;2022-12-05T12:47:22;25.77;;;12.52;;
70707;SDS011;58277;47.316;18.908;2022-12-05T12:52:21;24.95;;;12.40;;
70707;SDS011;58277;47.316;18.908;2022-12-05T13:06:06;27.38;;;12.90;;
70707;SDS011;58277;47.316;18.908;2022-12-05T13:08:41;24.57;;;11.50;;
70707;SDS011;58277;47.316;18.908;2022-12-05T13:11:08;25.27;;;12.07;;
70707;SDS011;58277;47.316;18.908;2022-12-05T13:13:53;25.02;;;11.75;;
70707;SDS011;58277;47.316;18.908;2022-12-05T13:16:40;28.63;;;11.63;;
70707;SDS011;58277;47.316;18.908;2022-12-05T13:19:13;27.20;;;12.15;;
70707;SDS011;58277;47.316;18.908;2022-12-05T13:21:49;25.63;;;13.03;;
70707;SDS011;58277;47.316;18.908;2022-12-05T13:24:13;24.50;;;11.85;;
70707;SDS011;58277;47.316;18.908;2022-12-05T13:26:43;25.08;;;12.30;;
70707;SDS011;58277;47.316;18.908;2022-12-05T13:29:13;24.08;;;11.82;;
70707;SDS011;58277;47.316;18.908;2022-12-05T13:31:44;27.40;;;13.00;;
70707;SDS011;58277;47.316;18.908;2022-12-05T13:36:58;29.90;;;13.45;;
70707;SDS011;58277;47.316;18.908;2022-12-05T13:39:50;29.00;;;12.85;;
70707;SDS011;58277;47.316;18.908;2022-12-05T13:42:33;24.23;;;11.43;;
70707;SDS011;58277;47.316;18.908;2022-12-05T13:50:22;26.85;;;13.20;;
70707;SDS011;58277;47.316;18.908;2022-12-05T13:52:53;26.50;;;13.02;;
70707;SDS011;58277;47.316;18.908;2022-12-05T13:57:58;25.38;;;11.77;;
70707;SDS011;58277;47.316;18.908;2022-12-05T14:00:29;25.47;;;12.40;;
70707;SDS011;58277;47.316;18.908;2022-12-05T14:05:33;23.52;;;11.38;;
70707;SDS011;58277;47.316;18.908;2022-12-05T14:07:58;22.52;;;11.32;;
70707;SDS011;58277;47.316;18.908;2022-12-05T14:12:54;25.80;;;11.77;;
70707;SDS011;58277;47.316;18.908;2022-12-05T14:20:47;22.58;;;10.63;;
70707;SDS011;58277;47.316;18.908;2022-12-05T14:33:30;20.85;;;10.15;;
70707;SDS011;58277;47.316;18.908;2022-12-05T14:35:53;22.02;;;10.18;;
70707;SDS011;58277;47.316;18.908;2022-12-05T14:38:29;24.10;;;11.30;;
70707;SDS011;58277;47.316;18.908;2022-12-05T14:40:55;23.10;;;10.65;;
70707;SDS011;58277;47.316;18.908;2022-12-05T14:43:32;25.27;;;11.20;;
70707;SDS011;58277;47.316;18.908;2022-12-05T14:46:00;24.90;;;11.63;;
70707;SDS011;58277;47.316;18.908;2022-12-05T14:50:51;25.67;;;12.57;;
70707;SDS011;58277;47.316;18.908;2022-12-05T14:56:15;26.58;;;13.45;;
70707;SDS011;58277;47.316;18.908;2022-12-05T15:01:17;30.90;;;14.50;;
70707;SDS011;58277;47.316;18.908;2022-12-05T15:06:18;29.50;;;14.57;;
70707;SDS011;58277;47.316;18.908;2022-12-05T15:08:45;31.35;;;14.45;;
70707;SDS011;58277;47.316;18.908;2022-12-05T15:11:13;30.70;;;13.52;;
70707;SDS011;58277;47.316;18.908;2022-12-05T15:13:49;30.92;;;14.98;;
70707;SDS011;58277;47.316;18.908;2022-12-05T15:16:13;35.80;;;16.00;;
70707;SDS011;58277;47.316;18.908;2022-12-05T15:18:45;33.83;;;15.48;;
70707;SDS011;58277;47.316;18.908;2022-12-05T15:26:26;32.78;;;14.35;;
70707;SDS011;58277;47.316;18.908;2022-12-05T15:31:53;30.58;;;14.38;;
70707;SDS011;58277;47.316;18.908;2022-12-05T15:34:20;31.98;;;14.80;;
70707;SDS011;58277;47.316;18.908;2022-12-05T15:36:48;32.17;;;14.68;;
70707;SDS011;58277;47.316;18.908;2022-12-05T15:39:55;32.67;;;15.27;;
70707;SDS011;58277;47.316;18.908;2022-12-05T15:42:24;35.17;;;15.53;;
70707;SDS011;58277;47.316;18.908;2022-12-05T15:44:51;32.38;;;14.93;;
70707;SDS011;58277;47.316;18.908;2022-12-05T15:47:20;33.85;;;15.73;;
70707;SDS011;58277;47.316;18.908;2022-12-05T15:49:48;39.60;;;15.98;;
70707;SDS011;58277;47.316;18.908;2022-12-05T15:52:23;35.67;;;15.93;;
70707;SDS011;58277;47.316;18.908;2022-12-05T15:54:51;37.33;;;15.63;;
70707;SDS011;58277;47.316;18.908;2022-12-05T15:57:17;35.53;;;15.57;;
70707;SDS011;58277;47.316;18.908;2022-12-05T15:59:53;36.40;;;15.80;;
70707;SDS011;58277;47.316;18.908;2022-12-05T16:05:16;34.28;;;15.52;;
70707;SDS011;58277;47.316;18.908;2022-12-05T16:07:41;37.10;;;16.43;;
70707;SDS011;58277;47.316;18.908;2022-12-05T16:10:11;38.03;;;16.10;;
70707;SDS011;58277;47.316;18.908;2022-12-05T16:12:38;38.15;;;15.88;;
70707;SDS011;58277;47.316;18.908;2022-12-05T16:15:04;33.72;;;15.50;;
70707;SDS011;58277;47.316;18.908;2022-12-05T16:17:38;30.42;;;13.57;;
70707;SDS011;58277;47.316;18.908;2022-12-05T16:22:46;30.65;;;14.55;;
70707;SDS011;58277;47.316;18.908;2022-12-05T16:25:11;34.20;;;15.43;;
70707;SDS011;58277;47.316;18.908;2022-12-05T16:27:37;34.42;;;15.43;;
70707;SDS011;58277;47.316;18.908;2022-12-05T16:32:43;34.38;;;14.75;;
70707;SDS011;58277;47.316;18.908;2022-12-05T16:38:01;34.40;;;15.38;;
70707;SDS011;58277;47.316;18.908;2022-12-05T16:40:34;29.75;;;13.93;;
70707;SDS011;58277;47.316;18.908;2022-12-05T16:43:05;33.65;;;15.00;;
70707;SDS011;58277;47.316;18.908;2022-12-05T16:45:42;37.20;;;15.30;;
70707;SDS011;58277;47.316;18.908;2022-12-05T16:48:40;30.38;;;13.65;;
70707;SDS011;58277;47.316;18.908;2022-12-05T16:53:48;37.65;;;16.38;;
70707;SDS011;58277;47.316;18.908;2022-12-05T16:56:30;37.03;;;15.15;;
70707;SDS011;58277;47.316;18.908;2022-12-05T16:58:54;37.87;;;16.00;;
70707;SDS011;58277;47.316;18.908;2022-12-05T17:01:20;35.00;;;14.82;;
70707;SDS011;58277;47.316;18.908;2022-12-05T17:03:46;32.75;;;14.15;;
70707;SDS011;58277;47.316;18.908;2022-12-05T17:06:10;32.55;;;14.43;;
70707;SDS011;58277;47.316;18.908;2022-12-05T17:08:33;32.65;;;13.82;;
70707;SDS011;58277;47.316;18.908;2022-12-05T17:10:56;30.43;;;13.03;;
70707;SDS011;58277;47.316;18.908;2022-12-05T17:13:22;31.45;;;13.32;;
70707;SDS011;58277;47.316;18.908;2022-12-05T17:15:45;32.92;;;14.48;;
70707;SDS011;58277;47.316;18.908;2022-12-05T17:18:18;32.53;;;13.63;;